This is the latest recevied weather packets stored in our database for station/object KE4AMH. If no packets are shown the sender has not sent any weather packets the latest 10 day(s).
| Time | Temp. | Humidity | Pressure | Rain* | Wind** | Luminosity | Snow |
|---|---|---|---|---|---|---|---|
| 1777495990 | 27.22° C | 63% | 1009.4 hPa | 0 mm | - | 152 W/m² | - |
| 1777495687 | 27.22° C | 63% | 1009.3 hPa | 0 mm | - | 82 W/m² | - |
| 1777495383 | 27.22° C | 62% | 1009.5 hPa | 0 mm | - | 79 W/m² | - |
| 1777495080 | 27.78° C | 62% | 1009.8 hPa | 0 mm | - | 60 W/m² | - |
| 1777494777 | 27.22° C | 64% | 1009.9 hPa | 0 mm | - | 53 W/m² | - |
| 1777494474 | 27.22° C | 63% | 1009.8 hPa | 0 mm | - | 60 W/m² | - |
| 1777494170 | 27.22° C | 64% | 1009.9 hPa | 0 mm | - | 61 W/m² | - |
| 1777493868 | 27.22° C | 63% | 1010 hPa | 0 mm | - | 104 W/m² | - |
| 1777493566 | 27.78° C | 61% | 1010.1 hPa | 0 mm | - | 325 W/m² | - |
| 1777493263 | 28.33° C | 64% | 1010.2 hPa | 0 mm | - | 565 W/m² | - |
| 1777492959 | 27.78° C | 64% | 1010.4 hPa | 0 mm | - | 508 W/m² | - |
| 1777492651 | 27.22° C | 64% | 1010.4 hPa | 0 mm | - | 537 W/m² | - |
| 1777492351 | 27.78° C | 64% | 1010.4 hPa | 0 mm | - | 521 W/m² | - |
| 1777492048 | 27.22° C | 65% | 1010.2 hPa | 0 mm | - | 579 W/m² | - |
| 1777491745 | 27.22° C | 67% | 1010.4 hPa | 0 mm | - | 436 W/m² | - |
| 1777491442 | 26.67° C | 69% | 1010.6 hPa | 0 mm | - | 613 W/m² | - |
| 1777491139 | 26.67° C | 67% | 1010.7 hPa | 0 mm | - | 184 W/m² | - |
| 1777490835 | 27.22° C | 66% | 1010.6 hPa | 0 mm | - | 657 W/m² | - |
| 1777490531 | 27.22° C | 67% | 1010.7 hPa | 0 mm | - | 470 W/m² | - |
| 1777490227 | 27.78° C | 68% | 1010.9 hPa | 0 mm | - | 639 W/m² | - |
| 1777489925 | 26.67° C | 69% | 1011 hPa | 0 mm | - | 228 W/m² | - |
| 1777489623 | 26.67° C | 67% | 1010.6 hPa | 0 mm | - | 634 W/m² | - |
| 1777489319 | 26.11° C | 69% | 1010.8 hPa | 0 mm | - | 204 W/m² | - |
| 1777489016 | 26.67° C | 68% | 1010.8 hPa | 0 mm | - | 384 W/m² | - |
| 1777488713 | 26.67° C | 69% | 1010.9 hPa | 0 mm | - | 272 W/m² | - |
* Rain latest hour (hover to see other rain measurements)
** Current wind speed in m/s (hover to see current wind gust speed)